sensor_id;sensor_type;location;lat;lon;timestamp;pressure;altitude;pressure_sealevel;temperature;humidity
22862;BME280;11598;50.652;6.172;2023-04-27T00:01:48;96712.63;;;2.19;83.01
22862;BME280;11598;50.652;6.172;2023-04-27T00:11:49;96707.75;;;2.13;84.06
22862;BME280;11598;50.652;6.172;2023-04-27T00:21:49;96697.78;;;2.28;84.32
22862;BME280;11598;50.652;6.172;2023-04-27T00:31:50;96694.72;;;2.41;84.03
22862;BME280;11598;50.652;6.172;2023-04-27T00:41:50;96687.53;;;2.50;84.18
22862;BME280;11598;50.652;6.172;2023-04-27T00:51:50;96691.91;;;2.47;83.79
22862;BME280;11598;50.652;6.172;2023-04-27T01:01:52;96686.31;;;2.37;83.33
22862;BME280;11598;50.652;6.172;2023-04-27T01:11:52;96687.69;;;2.24;83.35
22862;BME280;11598;50.652;6.172;2023-04-27T01:21:53;96692.38;;;2.13;83.44
22862;BME280;11598;50.652;6.172;2023-04-27T01:31:53;96693.53;;;2.04;84.17
22862;BME280;11598;50.652;6.172;2023-04-27T01:41:53;96698.44;;;2.10;84.64
22862;BME280;11598;50.652;6.172;2023-04-27T01:51:54;96676.09;;;2.14;84.12
22862;BME280;11598;50.652;6.172;2023-04-27T02:01:54;96684.69;;;2.13;83.59
22862;BME280;11598;50.652;6.172;2023-04-27T02:11:55;96684.34;;;2.22;82.43
22862;BME280;11598;50.652;6.172;2023-04-27T02:21:55;96685.91;;;2.26;81.44
22862;BME280;11598;50.652;6.172;2023-04-27T02:31:56;96677.59;;;2.19;81.64
22862;BME280;11598;50.652;6.172;2023-04-27T02:41:56;96672.38;;;1.99;82.31
22862;BME280;11598;50.652;6.172;2023-04-27T02:51:57;96664.22;;;1.64;83.74
22862;BME280;11598;50.652;6.172;2023-04-27T03:01:57;96666.84;;;1.39;84.85
22862;BME280;11598;50.652;6.172;2023-04-27T03:11:57;96660.56;;;1.22;85.48
22862;BME280;11598;50.652;6.172;2023-04-27T03:21:58;96663.59;;;1.09;86.31
22862;BME280;11598;50.652;6.172;2023-04-27T03:31:58;96668.13;;;1.00;86.91
22862;BME280;11598;50.652;6.172;2023-04-27T03:41:58;96661.97;;;1.06;87.17
22862;BME280;11598;50.652;6.172;2023-04-27T03:51:59;96665.25;;;1.10;86.81
22862;BME280;11598;50.652;6.172;2023-04-27T04:01:59;96666.75;;;1.15;86.57
22862;BME280;11598;50.652;6.172;2023-04-27T04:12:00;96683.84;;;1.15;86.51
22862;BME280;11598;50.652;6.172;2023-04-27T04:22:01;96694.72;;;1.21;86.50
22862;BME280;11598;50.652;6.172;2023-04-27T04:32:01;96691.28;;;1.22;86.48
22862;BME280;11598;50.652;6.172;2023-04-27T04:42:01;96701.19;;;1.32;86.68
22862;BME280;11598;50.652;6.172;2023-04-27T04:52:03;96704.22;;;1.68;86.98
22862;BME280;11598;50.652;6.172;2023-04-27T05:02:03;96701.84;;;2.10;86.57
22862;BME280;11598;50.652;6.172;2023-04-27T05:12:05;96712.81;;;2.38;86.01
22862;BME280;11598;50.652;6.172;2023-04-27T05:22:06;96716.69;;;2.70;85.25
22862;BME280;11598;50.652;6.172;2023-04-27T05:32:06;96726.09;;;3.13;85.15
22862;BME280;11598;50.652;6.172;2023-04-27T05:42:06;96718.84;;;3.64;83.46
22862;BME280;11598;50.652;6.172;2023-04-27T05:52:07;96734.59;;;4.35;81.69
22862;BME280;11598;50.652;6.172;2023-04-27T06:02:08;96732.63;;;4.96;78.61
22862;BME280;11598;50.652;6.172;2023-04-27T06:12:08;96724.34;;;5.25;75.93
22862;BME280;11598;50.652;6.172;2023-04-27T06:22:09;96715.94;;;5.74;74.93
22862;BME280;11598;50.652;6.172;2023-04-27T06:32:10;96728.53;;;6.13;72.37
22862;BME280;11598;50.652;6.172;2023-04-27T06:42:11;96729.00;;;6.69;70.01
22862;BME280;11598;50.652;6.172;2023-04-27T06:52:11;96739.41;;;6.52;68.33
22862;BME280;11598;50.652;6.172;2023-04-27T07:02:11;96717.13;;;7.13;65.16
22862;BME280;11598;50.652;6.172;2023-04-27T07:12:12;96729.28;;;7.71;63.66
22862;BME280;11598;50.652;6.172;2023-04-27T07:22:12;96742.94;;;7.73;61.15
22862;BME280;11598;50.652;6.172;2023-04-27T07:32:15;96740.84;;;7.80;59.94
22862;BME280;11598;50.652;6.172;2023-04-27T07:42:15;96736.22;;;7.71;58.94
22862;BME280;11598;50.652;6.172;2023-04-27T07:52:15;96733.84;;;7.52;60.01
22862;BME280;11598;50.652;6.172;2023-04-27T08:02:16;96737.94;;;8.43;57.82
22862;BME280;11598;50.652;6.172;2023-04-27T08:12:17;96723.50;;;8.11;57.60
22862;BME280;11598;50.652;6.172;2023-04-27T08:22:18;96720.16;;;7.80;59.02
22862;BME280;11598;50.652;6.172;2023-04-27T08:32:18;96720.19;;;7.50;57.87
22862;BME280;11598;50.652;6.172;2023-04-27T08:42:19;96724.69;;;7.76;58.30
22862;BME280;11598;50.652;6.172;2023-04-27T08:52:19;96714.63;;;7.86;58.28
22862;BME280;11598;50.652;6.172;2023-04-27T09:02:20;96699.56;;;7.93;58.75
22862;BME280;11598;50.652;6.172;2023-04-27T09:12:20;96707.53;;;8.18;59.29
22862;BME280;11598;50.652;6.172;2023-04-27T09:22:21;96713.88;;;8.27;58.34
22862;BME280;11598;50.652;6.172;2023-04-27T09:32:21;96717.19;;;8.58;57.06
22862;BME280;11598;50.652;6.172;2023-04-27T09:42:22;96713.19;;;9.08;57.12
22862;BME280;11598;50.652;6.172;2023-04-27T09:52:22;96701.91;;;9.22;56.69
22862;BME280;11598;50.652;6.172;2023-04-27T10:02:23;96696.31;;;9.28;55.87
22862;BME280;11598;50.652;6.172;2023-04-27T10:12:31;96689.13;;;9.46;54.59
22862;BME280;11598;50.652;6.172;2023-04-27T10:22:43;96680.38;;;9.47;54.81
22862;BME280;11598;50.652;6.172;2023-04-27T10:32:51;96678.34;;;9.65;56.14
22862;BME280;11598;50.652;6.172;2023-04-27T10:42:52;96677.00;;;9.72;55.69
22862;BME280;11598;50.652;6.172;2023-04-27T10:52:52;96677.41;;;9.79;54.71
22862;BME280;11598;50.652;6.172;2023-04-27T11:02:54;96660.06;;;9.79;55.19
22862;BME280;11598;50.652;6.172;2023-04-27T11:12:55;96640.34;;;9.89;55.26
22862;BME280;11598;50.652;6.172;2023-04-27T11:22:56;96622.44;;;10.10;54.65
22862;BME280;11598;50.652;6.172;2023-04-27T11:32:56;96618.19;;;10.35;55.61
22862;BME280;11598;50.652;6.172;2023-04-27T11:42:58;96610.38;;;10.83;55.01
22862;BME280;11598;50.652;6.172;2023-04-27T11:52:59;96599.78;;;10.97;54.88
22862;BME280;11598;50.652;6.172;2023-04-27T12:03:01;96593.31;;;11.03;54.90
22862;BME280;11598;50.652;6.172;2023-04-27T12:13:02;96591.06;;;10.98;54.33
22862;BME280;11598;50.652;6.172;2023-04-27T12:23:02;96594.09;;;11.28;54.24
22862;BME280;11598;50.652;6.172;2023-04-27T12:33:03;96591.50;;;11.39;55.13
22862;BME280;11598;50.652;6.172;2023-04-27T12:43:08;96591.13;;;11.32;54.58
22862;BME280;11598;50.652;6.172;2023-04-27T12:53:09;96584.56;;;11.51;54.46
22862;BME280;11598;50.652;6.172;2023-04-27T13:03:09;96584.47;;;11.97;54.37
22862;BME280;11598;50.652;6.172;2023-04-27T13:13:10;96561.63;;;12.01;53.79
22862;BME280;11598;50.652;6.172;2023-04-27T13:23:11;96566.81;;;11.78;54.16
22862;BME280;11598;50.652;6.172;2023-04-27T13:33:11;96560.78;;;11.78;54.56
22862;BME280;11598;50.652;6.172;2023-04-27T13:43:12;96547.53;;;11.58;54.71
22862;BME280;11598;50.652;6.172;2023-04-27T13:53:12;96543.63;;;11.98;54.35
22862;BME280;11598;50.652;6.172;2023-04-27T14:03:15;96540.06;;;12.10;54.36
22862;BME280;11598;50.652;6.172;2023-04-27T14:13:16;96530.00;;;12.05;53.66
22862;BME280;11598;50.652;6.172;2023-04-27T14:23:17;96523.38;;;12.01;54.02
22862;BME280;11598;50.652;6.172;2023-04-27T14:33:17;96492.63;;;12.07;53.13
22862;BME280;11598;50.652;6.172;2023-04-27T14:43:17;96489.66;;;12.11;52.82
22862;BME280;11598;50.652;6.172;2023-04-27T14:53:18;96465.81;;;12.16;52.68
22862;BME280;11598;50.652;6.172;2023-04-27T15:03:18;96479.78;;;12.15;52.70
22862;BME280;11598;50.652;6.172;2023-04-27T15:13:19;96484.09;;;12.04;53.98
22862;BME280;11598;50.652;6.172;2023-04-27T15:23:20;96477.84;;;11.96;53.53
22862;BME280;11598;50.652;6.172;2023-04-27T15:33:20;96479.38;;;11.98;53.83
22862;BME280;11598;50.652;6.172;2023-04-27T15:43:21;96476.28;;;12.04;53.41
22862;BME280;11598;50.652;6.172;2023-04-27T15:53:21;96480.13;;;12.21;53.07
22862;BME280;11598;50.652;6.172;2023-04-27T16:03:22;96475.75;;;12.22;51.94
22862;BME280;11598;50.652;6.172;2023-04-27T16:13:22;96471.72;;;12.18;52.51
22862;BME280;11598;50.652;6.172;2023-04-27T16:23:22;96440.75;;;12.03;52.88
22862;BME280;11598;50.652;6.172;2023-04-27T16:33:23;96428.16;;;11.76;53.84
22862;BME280;11598;50.652;6.172;2023-04-27T16:43:24;96417.16;;;11.73;55.01
22862;BME280;11598;50.652;6.172;2023-04-27T16:53:25;96407.66;;;11.39;55.43
22862;BME280;11598;50.652;6.172;2023-04-27T17:03:26;96417.13;;;11.18;55.76
22862;BME280;11598;50.652;6.172;2023-04-27T17:13:26;96413.34;;;10.99;56.31
22862;BME280;11598;50.652;6.172;2023-04-27T17:23:27;96402.72;;;10.91;56.69
22862;BME280;11598;50.652;6.172;2023-04-27T17:33:27;96412.97;;;10.70;56.89
22862;BME280;11598;50.652;6.172;2023-04-27T17:43:27;96400.06;;;10.57;57.73
22862;BME280;11598;50.652;6.172;2023-04-27T17:53:28;96396.97;;;10.41;58.28
22862;BME280;11598;50.652;6.172;2023-04-27T18:03:28;96392.88;;;10.26;58.60
22862;BME280;11598;50.652;6.172;2023-04-27T18:13:29;96391.53;;;10.09;58.74
22862;BME280;11598;50.652;6.172;2023-04-27T18:23:37;96395.16;;;9.95;59.18
22862;BME280;11598;50.652;6.172;2023-04-27T18:33:38;96375.00;;;9.74;59.66
22862;BME280;11598;50.652;6.172;2023-04-27T18:43:39;96371.75;;;9.60;60.30
22862;BME280;11598;50.652;6.172;2023-04-27T18:53:39;96370.00;;;9.47;61.16
22862;BME280;11598;50.652;6.172;2023-04-27T19:03:40;96365.69;;;9.35;61.35
22862;BME280;11598;50.652;6.172;2023-04-27T19:13:40;96381.19;;;9.24;61.42
22862;BME280;11598;50.652;6.172;2023-04-27T19:23:42;96400.59;;;9.18;61.45
22862;BME280;11598;50.652;6.172;2023-04-27T19:33:44;96404.00;;;9.19;61.19
22862;BME280;11598;50.652;6.172;2023-04-27T19:43:45;96397.38;;;9.15;60.54
22862;BME280;11598;50.652;6.172;2023-04-27T19:53:46;96385.38;;;9.14;60.37
22862;BME280;11598;50.652;6.172;2023-04-27T20:03:47;96385.59;;;9.10;60.43
22862;BME280;11598;50.652;6.172;2023-04-27T20:13:47;96372.63;;;9.10;59.95
22862;BME280;11598;50.652;6.172;2023-04-27T20:23:48;96363.69;;;9.15;59.58
22862;BME280;11598;50.652;6.172;2023-04-27T20:33:49;96342.75;;;9.18;59.52
22862;BME280;11598;50.652;6.172;2023-04-27T20:43:49;96331.66;;;9.16;59.80
22862;BME280;11598;50.652;6.172;2023-04-27T20:53:51;96308.66;;;9.11;60.18
22862;BME280;11598;50.652;6.172;2023-04-27T21:03:51;96306.16;;;9.09;60.52
22862;BME280;11598;50.652;6.172;2023-04-27T21:13:52;96287.53;;;9.04;61.28
22862;BME280;11598;50.652;6.172;2023-04-27T21:23:52;96296.25;;;9.03;61.74
22862;BME280;11598;50.652;6.172;2023-04-27T21:33:53;96291.06;;;9.03;61.78
22862;BME280;11598;50.652;6.172;2023-04-27T21:43:53;96280.81;;;9.02;62.17
22862;BME280;11598;50.652;6.172;2023-04-27T21:53:54;96264.97;;;8.94;62.53
22862;BME280;11598;50.652;6.172;2023-04-27T22:03:54;96250.78;;;8.86;63.31
22862;BME280;11598;50.652;6.172;2023-04-27T22:13:55;96245.09;;;8.81;63.74
22862;BME280;11598;50.652;6.172;2023-04-27T22:23:55;96229.78;;;8.78;64.26
22862;BME280;11598;50.652;6.172;2023-04-27T22:33:56;96227.44;;;8.75;64.99
22862;BME280;11598;50.652;6.172;2023-04-27T22:43:56;96207.94;;;8.70;66.10
22862;BME280;11598;50.652;6.172;2023-04-27T22:53:56;96197.19;;;8.63;66.52
22862;BME280;11598;50.652;6.172;2023-04-27T23:13:59;96191.19;;;8.86;68.25
22862;BME280;11598;50.652;6.172;2023-04-27T23:24:00;96183.88;;;8.80;73.49
22862;BME280;11598;50.652;6.172;2023-04-27T23:34:00;96163.34;;;8.53;79.22
22862;BME280;11598;50.652;6.172;2023-04-27T23:44:00;96154.38;;;8.33;83.16
22862;BME280;11598;50.652;6.172;2023-04-27T23:54:01;96153.38;;;8.23;86.38
